Time;durP1;ratioP1;P1;durP2;ratioP2;P2;SDS_P1;SDS_P2;PMS_P1;PMS_P2;Temp;Humidity;BMP_temperature;BMP_pressure;BME280_temperature;BME280_humidity;BME280_pressure;Samples;Min_cycle;Max_cycle;Signal;HPM_P1;HPM_P2
2023/12/30 00:01:29;;;;;;;2.03;0.83;;;19.60;47.20;;;;;;4957486;28;20227;-79
2023/12/30 00:03:54;;;;;;;3.33;0.90;;;19.50;47.00;;;;;;4958777;28;20237;-77
2023/12/30 00:06:20;;;;;;;0.97;0.77;;;19.60;47.20;;;;;;4959394;28;20224;-77
2023/12/30 00:08:46;;;;;;;1.73;0.70;;;19.50;47.00;;;;;;4959671;28;20311;-79
2023/12/30 00:11:12;;;;;;;0.80;0.70;;;19.60;47.10;;;;;;4956014;28;20225;-79
2023/12/30 00:13:38;;;;;;;1.63;0.90;;;19.60;47.20;;;;;;4960579;28;20454;-79
2023/12/30 00:16:04;;;;;;;0.90;0.80;;;19.60;47.20;;;;;;4960708;28;20217;-78
2023/12/30 00:18:29;;;;;;;1.40;0.73;;;19.60;47.10;;;;;;4960053;28;20837;-77
2023/12/30 00:20:55;;;;;;;1.03;0.93;;;19.50;47.00;;;;;;4957461;28;23926;-78
2023/12/30 00:23:20;;;;;;;1.00;0.80;;;19.60;47.20;;;;;;4960412;28;20232;-78
2023/12/30 00:25:46;;;;;;;1.30;0.80;;;19.50;47.00;;;;;;4950225;28;20551;-78
2023/12/30 00:28:12;;;;;;;0.97;0.80;;;19.60;47.20;;;;;;4949195;28;20253;-78
2023/12/30 00:30:37;;;;;;;0.90;0.80;;;19.50;47.00;;;;;;4981516;28;20477;-78
2023/12/30 00:33:04;;;;;;;1.20;0.90;;;19.60;47.10;;;;;;4948473;28;20721;-78
2023/12/30 00:35:29;;;;;;;1.87;0.80;;;19.50;47.00;;;;;;4963796;28;20636;-78
2023/12/30 00:37:55;;;;;;;1.20;0.90;;;19.50;47.00;;;;;;4983088;28;20486;-78
2023/12/30 00:40:20;;;;;;;1.37;0.90;;;19.50;47.00;;;;;;4994710;28;20235;-79
2023/12/30 00:42:46;;;;;;;0.80;0.80;;;19.50;47.00;;;;;;4988126;28;20294;-78
2023/12/30 00:45:12;;;;;;;1.20;0.87;;;19.50;47.00;;;;;;4978019;28;20298;-77
2023/12/30 00:47:37;;;;;;;0.97;0.80;;;19.50;47.00;;;;;;4973198;28;20691;-79
2023/12/30 00:50:03;;;;;;;0.70;0.67;;;19.50;47.00;;;;;;4978833;28;20231;-79
2023/12/30 00:52:29;;;;;;;0.93;0.70;;;19.50;47.10;;;;;;4992093;28;20500;-79
2023/12/30 00:54:55;;;;;;;1.33;0.90;;;19.50;47.00;;;;;;4988702;28;20798;-77
2023/12/30 00:57:20;;;;;;;0.80;0.70;;;19.50;47.00;;;;;;4985440;28;20220;-79
2023/12/30 00:59:46;;;;;;;1.23;0.60;;;19.50;47.10;;;;;;4985527;28;20229;-79
2023/12/30 01:02:12;;;;;;;0.83;0.80;;;19.50;47.00;;;;;;4969777;28;20223;-80
2023/12/30 01:04:37;;;;;;;1.07;0.80;;;19.50;47.00;;;;;;4985055;28;20774;-79
2023/12/30 01:07:03;;;;;;;1.70;1.07;;;19.50;47.00;;;;;;4989932;28;20237;-78
2023/12/30 01:09:28;;;;;;;1.50;0.63;;;19.50;47.10;;;;;;4978938;28;20320;-79
2023/12/30 01:11:54;;;;;;;0.70;0.50;;;19.50;47.00;;;;;;4994933;28;20241;-79
2023/12/30 01:14:20;;;;;;;0.80;0.80;;;19.50;47.10;;;;;;4970998;28;20608;-79
2023/12/30 01:16:45;;;;;;;0.80;0.70;;;19.50;47.80;;;;;;4980456;28;20227;-79
2023/12/30 01:19:11;;;;;;;1.33;0.60;;;19.50;47.10;;;;;;4992765;28;20230;-78
2023/12/30 01:21:37;;;;;;;0.97;0.87;;;19.50;47.00;;;;;;4982200;28;20245;-79
2023/12/30 01:24:02;;;;;;;0.80;0.70;;;19.50;47.00;;;;;;4991258;28;20589;-73
2023/12/30 01:26:28;;;;;;;0.90;0.70;;;19.50;47.00;;;;;;4984766;28;20251;-76
2023/12/30 01:28:53;;;;;;;2.30;1.00;;;19.50;47.10;;;;;;4972671;28;20266;-75
2023/12/30 01:31:19;;;;;;;1.10;0.70;;;19.50;47.10;;;;;;4995075;28;20738;-78
2023/12/30 01:33:45;;;;;;;1.10;0.93;;;19.50;47.10;;;;;;4991437;28;20466;-79
2023/12/30 01:36:11;;;;;;;1.40;0.83;;;19.50;47.00;;;;;;4970930;28;20302;-77
2023/12/30 01:38:37;;;;;;;1.83;0.90;;;19.50;47.00;;;;;;4991989;28;20847;-75
2023/12/30 01:41:02;;;;;;;1.70;0.70;;;19.50;47.00;;;;;;4995865;28;21119;-78
2023/12/30 01:43:30;;;;;;;0.80;0.80;;;19.50;47.00;;;;;;4993157;28;20219;-79
2023/12/30 01:46:01;;;;;;;0.80;0.70;;;19.50;47.10;;;;;;4973482;28;20223;-79
2023/12/30 01:48:28;;;;;;;1.03;0.83;;;19.50;47.00;;;;;;4988011;28;20420;-79
2023/12/30 01:50:59;;;;;;;0.70;0.60;;;19.50;47.00;;;;;;4974807;28;21367;-79
2023/12/30 01:53:26;;;;;;;0.77;0.60;;;19.50;47.00;;;;;;4996421;28;20540;-79
2023/12/30 01:55:52;;;;;;;0.80;0.60;;;19.50;47.00;;;;;;4987073;28;20551;-77
2023/12/30 01:58:20;;;;;;;0.80;0.70;;;19.50;47.00;;;;;;4972954;28;20470;-78
2023/12/30 02:00:54;;;;;;;0.77;0.70;;;19.50;47.10;;;;;;4985680;28;20445;-72
2023/12/30 02:03:21;;;;;;;0.90;0.80;;;19.50;47.00;;;;;;4995794;28;20457;-73
2023/12/30 02:05:47;;;;;;;1.67;0.83;;;19.50;47.00;;;;;;4977149;28;20986;-71
2023/12/30 02:08:17;;;;;;;0.80;0.80;;;19.50;47.00;;;;;;4978294;28;20432;-71
2023/12/30 02:10:43;;;;;;;1.23;1.13;;;19.50;47.00;;;;;;4991560;28;20310;-72
2023/12/30 02:13:09;;;;;;;2.10;0.67;;;19.50;47.00;;;;;;4989447;28;20966;-74
2023/12/30 02:15:35;;;;;;;1.10;0.90;;;19.50;47.10;;;;;;4985918;28;20452;-73
2023/12/30 02:18:01;;;;;;;0.80;0.63;;;19.50;47.00;;;;;;4989509;28;21773;-76
2023/12/30 02:20:27;;;;;;;0.80;0.77;;;19.50;47.00;;;;;;4994138;28;20622;-73
2023/12/30 02:22:53;;;;;;;1.00;0.70;;;19.50;47.00;;;;;;4986442;28;20417;-72
2023/12/30 02:25:19;;;;;;;2.40;0.80;;;19.50;47.00;;;;;;4977979;28;20318;-70
2023/12/30 02:27:45;;;;;;;1.03;0.67;;;19.50;47.00;;;;;;4976894;28;20228;-72
2023/12/30 02:30:12;;;;;;;2.03;0.97;;;19.50;47.00;;;;;;4969456;28;20228;-73
2023/12/30 02:32:38;;;;;;;0.97;0.80;;;19.50;47.00;;;;;;4978426;28;20444;-73
2023/12/30 02:35:04;;;;;;;1.00;0.90;;;19.50;47.00;;;;;;4967413;28;20964;-73
2023/12/30 02:37:29;;;;;;;0.80;0.70;;;19.50;47.00;;;;;;4984195;28;20246;-72
2023/12/30 02:39:55;;;;;;;0.90;0.73;;;19.50;47.00;;;;;;4984019;28;20559;-73
2023/12/30 02:42:20;;;;;;;1.83;0.90;;;19.50;47.00;;;;;;4994004;28;20347;-71
2023/12/30 02:44:46;;;;;;;1.10;0.90;;;19.50;46.90;;;;;;4974443;28;20275;-72
2023/12/30 02:47:11;;;;;;;0.90;0.80;;;19.50;47.00;;;;;;4982962;28;20224;-71
2023/12/30 02:49:43;;;;;;;3.03;1.23;;;19.50;46.90;;;;;;4991163;28;20572;-71
2023/12/30 02:52:09;;;;;;;1.30;1.10;;;19.50;47.00;;;;;;4991596;28;20614;-74
2023/12/30 02:54:35;;;;;;;0.80;0.70;;;19.50;47.00;;;;;;4969781;28;20460;-72
2023/12/30 02:57:02;;;;;;;1.10;0.87;;;19.50;47.00;;;;;;4984065;28;20231;-73
2023/12/30 02:59:29;;;;;;;0.60;0.60;;;19.50;47.00;;;;;;4992619;28;20484;-76
2023/12/30 03:01:54;;;;;;;0.90;0.60;;;19.50;47.00;;;;;;4991403;28;20461;-71
2023/12/30 03:04:20;;;;;;;1.70;0.70;;;19.50;47.00;;;;;;4968015;28;21014;-71
2023/12/30 03:06:45;;;;;;;0.67;0.53;;;19.50;46.90;;;;;;4995810;28;20251;-73
2023/12/30 03:09:11;;;;;;;0.90;0.80;;;19.50;46.90;;;;;;4977502;28;20215;-78
2023/12/30 03:11:37;;;;;;;0.80;0.67;;;19.50;46.90;;;;;;4994546;28;20591;-75
2023/12/30 03:14:03;;;;;;;0.90;0.80;;;19.50;47.00;;;;;;4982687;28;20454;-75
2023/12/30 03:16:29;;;;;;;1.43;0.83;;;19.50;46.90;;;;;;4972965;28;20220;-78
2023/12/30 03:18:55;;;;;;;1.23;1.07;;;19.50;47.00;;;;;;4991630;28;20255;-78
2023/12/30 03:21:21;;;;;;;1.17;0.73;;;19.50;47.00;;;;;;4982677;28;20785;-78
2023/12/30 03:23:47;;;;;;;1.00;0.90;;;19.50;47.00;;;;;;4996687;28;20428;-78
2023/12/30 03:26:13;;;;;;;0.90;0.90;;;19.50;47.00;;;;;;4984867;28;20958;-78
2023/12/30 03:28:38;;;;;;;0.97;0.80;;;19.50;46.90;;;;;;4988337;28;20478;-78
2023/12/30 03:31:06;;;;;;;0.80;0.70;;;19.50;47.00;;;;;;4990779;28;20224;-78
2023/12/30 03:33:32;;;;;;;0.60;0.50;;;19.50;47.00;;;;;;4987324;28;20207;-78
2023/12/30 03:35:59;;;;;;;0.70;0.60;;;19.50;47.00;;;;;;4992699;28;20568;-79
2023/12/30 03:38:24;;;;;;;0.70;0.70;;;19.50;46.90;;;;;;4990910;28;20223;-78
2023/12/30 03:40:50;;;;;;;0.80;0.70;;;19.50;47.00;;;;;;4985545;28;21036;-78
2023/12/30 03:43:16;;;;;;;0.70;0.60;;;19.50;47.00;;;;;;4963890;28;20756;-78
2023/12/30 03:45:42;;;;;;;1.13;0.70;;;19.50;47.00;;;;;;4968143;28;20238;-77
2023/12/30 03:48:08;;;;;;;1.00;0.80;;;19.50;46.90;;;;;;4992186;28;20432;-77
2023/12/30 03:50:36;;;;;;;2.40;1.03;;;19.50;47.00;;;;;;4993988;28;20223;-78
2023/12/30 03:53:02;;;;;;;0.80;0.70;;;19.50;46.90;;;;;;4972952;28;20507;-78
2023/12/30 03:55:28;;;;;;;0.80;0.70;;;19.50;46.90;;;;;;4978071;28;20487;-78
2023/12/30 03:57:54;;;;;;;0.83;0.70;;;19.50;46.90;;;;;;4977686;28;21013;-78
2023/12/30 04:00:20;;;;;;;1.53;0.80;;;19.50;46.90;;;;;;4979016;28;20220;-78
2023/12/30 04:02:47;;;;;;;0.80;0.70;;;19.50;46.90;;;;;;4986354;28;20219;-78
2023/12/30 04:05:12;;;;;;;0.77;0.73;;;19.50;46.90;;;;;;4984375;28;20472;-78
2023/12/30 04:07:38;;;;;;;0.80;0.60;;;19.50;46.90;;;;;;4982939;28;20865;-78
2023/12/30 04:10:04;;;;;;;1.00;0.67;;;19.50;46.90;;;;;;4988812;28;20225;-77
2023/12/30 04:12:32;;;;;;;0.80;0.80;;;19.50;46.90;;;;;;4996551;28;20605;-77
2023/12/30 04:14:57;;;;;;;0.80;0.67;;;19.50;46.90;;;;;;4994057;28;20458;-79
2023/12/30 04:17:23;;;;;;;0.77;0.63;;;19.50;46.90;;;;;;4993011;28;20940;-78
2023/12/30 04:19:48;;;;;;;0.93;0.80;;;19.50;46.90;;;;;;4979222;28;20258;-73
2023/12/30 04:22:14;;;;;;;0.90;0.70;;;19.50;46.90;;;;;;4996083;28;20223;-71
2023/12/30 04:24:40;;;;;;;0.80;0.60;;;19.50;46.90;;;;;;4985975;28;20225;-72
2023/12/30 04:27:05;;;;;;;1.33;0.90;;;19.50;47.60;;;;;;4993744;28;20227;-70
2023/12/30 04:29:31;;;;;;;0.90;0.60;;;19.50;46.90;;;;;;4987979;28;20274;-74
2023/12/30 04:31:56;;;;;;;1.30;0.80;;;19.50;46.90;;;;;;4997124;28;20315;-74
2023/12/30 04:34:22;;;;;;;0.80;0.63;;;19.50;46.90;;;;;;4986743;28;20606;-76
2023/12/30 04:36:48;;;;;;;0.80;0.70;;;19.50;46.80;;;;;;4995093;28;20230;-73
2023/12/30 04:39:13;;;;;;;1.10;0.80;;;19.50;46.80;;;;;;4992382;28;20440;-76
2023/12/30 04:41:39;;;;;;;1.10;0.90;;;19.50;46.90;;;;;;4983447;28;20224;-78
2023/12/30 04:44:05;;;;;;;0.90;0.70;;;19.50;46.90;;;;;;4980448;28;20223;-78
2023/12/30 04:46:31;;;;;;;1.30;0.67;;;19.50;46.90;;;;;;4988969;28;21021;-78
2023/12/30 04:48:56;;;;;;;0.80;0.80;;;19.50;46.80;;;;;;4991285;28;20702;-75
2023/12/30 04:51:22;;;;;;;1.00;0.80;;;19.50;46.80;;;;;;4991171;28;20231;-75
2023/12/30 04:53:47;;;;;;;0.77;0.60;;;19.50;46.80;;;;;;4990505;28;20207;-78
2023/12/30 04:56:16;;;;;;;1.67;1.37;;;19.50;46.80;;;;;;4975009;28;20239;-74
2023/12/30 04:58:42;;;;;;;0.80;0.60;;;19.50;46.70;;;;;;4971185;28;20255;-78
2023/12/30 05:01:08;;;;;;;0.70;0.70;;;19.50;46.70;;;;;;4994496;28;20454;-77
2023/12/30 05:03:35;;;;;;;1.00;0.70;;;19.50;46.70;;;;;;4996768;28;20437;-78
2023/12/30 05:06:01;;;;;;;0.93;0.70;;;19.50;46.70;;;;;;4988839;28;20627;-78
2023/12/30 05:08:26;;;;;;;0.93;0.70;;;19.50;46.70;;;;;;4991640;28;20443;-77
2023/12/30 05:10:52;;;;;;;1.40;0.90;;;19.50;46.70;;;;;;4979730;28;20307;-79
2023/12/30 05:13:18;;;;;;;0.70;0.60;;;19.50;46.70;;;;;;4985760;28;20231;-78
2023/12/30 05:15:43;;;;;;;1.07;0.70;;;19.50;46.70;;;;;;4985010;28;20215;-78
2023/12/30 05:18:11;;;;;;;1.07;0.73;;;19.50;46.70;;;;;;4990906;28;20220;-78
2023/12/30 05:20:37;;;;;;;0.90;0.70;;;19.60;46.70;;;;;;4992516;28;20334;-78
2023/12/30 05:23:03;;;;;;;1.57;0.70;;;19.50;46.60;;;;;;4991671;28;20456;-79
2023/12/30 05:25:28;;;;;;;1.03;0.73;;;19.50;46.60;;;;;;4986492;28;20246;-78
2023/12/30 05:27:54;;;;;;;0.70;0.60;;;19.60;46.70;;;;;;4990896;28;20231;-77
2023/12/30 05:30:20;;;;;;;0.83;0.70;;;19.60;46.70;;;;;;4993669;28;20220;-78
2023/12/30 05:32:45;;;;;;;1.10;0.70;;;19.50;46.60;;;;;;4987290;28;20224;-78
2023/12/30 05:35:11;;;;;;;0.90;0.73;;;19.60;46.70;;;;;;4985333;28;20235;-78
2023/12/30 05:37:36;;;;;;;0.70;0.60;;;19.60;46.70;;;;;;4991122;28;20265;-78
2023/12/30 05:40:06;;;;;;;0.80;0.70;;;19.60;46.70;;;;;;4977793;28;21468;-70
2023/12/30 05:42:31;;;;;;;0.87;0.60;;;19.60;46.70;;;;;;4984394;28;20224;-72
2023/12/30 05:44:57;;;;;;;1.10;0.90;;;19.60;46.60;;;;;;4995981;28;20765;-73
2023/12/30 05:47:23;;;;;;;0.80;0.60;;;19.60;46.60;;;;;;4992556;28;20276;-76
2023/12/30 05:49:49;;;;;;;0.83;0.80;;;19.60;46.60;;;;;;4992928;28;20440;-72
2023/12/30 05:52:14;;;;;;;0.70;0.60;;;19.60;46.60;;;;;;4989728;28;20816;-71
2023/12/30 05:54:40;;;;;;;0.70;0.67;;;19.60;46.60;;;;;;4985820;28;20247;-73
2023/12/30 05:57:05;;;;;;;1.23;0.80;;;19.60;46.60;;;;;;4990916;28;20307;-71
2023/12/30 05:59:31;;;;;;;0.70;0.63;;;19.60;46.60;;;;;;4991966;28;20239;-75
2023/12/30 06:01:58;;;;;;;0.90;0.70;;;19.60;46.60;;;;;;4994575;28;20703;-71
2023/12/30 06:04:25;;;;;;;0.80;0.60;;;19.60;46.60;;;;;;4991081;28;20232;-71
2023/12/30 06:06:50;;;;;;;0.80;0.70;;;19.60;46.60;;;;;;4984601;28;21451;-71
2023/12/30 06:09:16;;;;;;;0.80;0.70;;;19.60;46.60;;;;;;4993623;28;20427;-75
2023/12/30 06:11:41;;;;;;;0.87;0.70;;;19.60;46.60;;;;;;4984010;28;20232;-70
2023/12/30 06:14:07;;;;;;;1.77;0.70;;;19.60;46.50;;;;;;4985951;28;20702;-70
2023/12/30 06:16:32;;;;;;;0.90;0.80;;;19.60;46.50;;;;;;4972246;28;20247;-70
2023/12/30 06:18:58;;;;;;;0.80;0.70;;;19.60;46.50;;;;;;4984628;28;20222;-72
2023/12/30 06:21:24;;;;;;;1.00;0.67;;;19.60;46.50;;;;;;4996310;28;20235;-72
2023/12/30 06:23:49;;;;;;;0.77;0.77;;;19.60;46.50;;;;;;4989923;28;20247;-75
2023/12/30 06:26:15;;;;;;;0.90;0.70;;;19.60;46.50;;;;;;4993057;28;20299;-72
2023/12/30 06:28:40;;;;;;;0.90;0.80;;;19.60;46.50;;;;;;4981270;28;20303;-71
2023/12/30 06:31:06;;;;;;;0.77;0.70;;;19.60;46.50;;;;;;4993269;28;20602;-72
2023/12/30 06:33:31;;;;;;;1.30;0.77;;;19.60;46.50;;;;;;4977824;28;20216;-72
2023/12/30 06:35:57;;;;;;;0.80;0.77;;;19.60;46.60;;;;;;4984209;28;20310;-71
2023/12/30 06:38:22;;;;;;;0.93;0.60;;;19.60;46.40;;;;;;4986404;28;20750;-72
2023/12/30 06:40:48;;;;;;;0.80;0.60;;;19.60;46.50;;;;;;4995231;28;20220;-72
2023/12/30 06:43:14;;;;;;;0.80;0.80;;;19.60;46.40;;;;;;4964968;28;20212;-74
2023/12/30 06:45:40;;;;;;;1.23;0.93;;;19.60;46.40;;;;;;4984091;28;20223;-71
2023/12/30 06:48:06;;;;;;;1.43;0.70;;;19.60;46.40;;;;;;4983448;28;20219;-71
2023/12/30 06:50:31;;;;;;;0.80;0.63;;;19.60;46.40;;;;;;4978265;28;20713;-76
2023/12/30 06:52:58;;;;;;;0.70;0.60;;;19.60;46.40;;;;;;4985737;28;20539;-77
2023/12/30 06:55:24;;;;;;;1.10;0.70;;;19.60;46.40;;;;;;4988050;28;20633;-77
2023/12/30 06:57:49;;;;;;;1.00;0.50;;;19.60;46.30;;;;;;4979521;28;20440;-78
2023/12/30 07:00:15;;;;;;;0.83;0.70;;;19.60;46.30;;;;;;4989675;28;20220;-76
2023/12/30 07:02:41;;;;;;;0.80;0.70;;;19.70;46.40;;;;;;4991674;28;20817;-79
2023/12/30 07:05:11;;;;;;;0.70;0.70;;;19.70;46.40;;;;;;4994376;28;20457;-77
2023/12/30 07:07:37;;;;;;;0.83;0.70;;;19.70;46.40;;;;;;4972007;28;20278;-78
2023/12/30 07:10:06;;;;;;;1.03;0.80;;;19.60;46.30;;;;;;4991361;28;20460;-79
2023/12/30 07:12:31;;;;;;;1.20;0.77;;;19.60;46.30;;;;;;4976971;28;20449;-80
2023/12/30 07:15:00;;;;;;;0.80;0.70;;;19.70;46.30;;;;;;4991297;28;20935;-80
2023/12/30 07:17:26;;;;;;;1.07;0.80;;;19.70;46.40;;;;;;4985631;28;20223;-76
2023/12/30 07:19:52;;;;;;;1.23;0.80;;;19.70;46.40;;;;;;4978267;28;20481;-79
2023/12/30 07:22:19;;;;;;;0.80;0.73;;;19.70;46.40;;;;;;4977067;28;20461;-78
2023/12/30 07:24:46;;;;;;;1.00;0.80;;;19.70;46.40;;;;;;4976165;28;20255;-79
2023/12/30 07:27:12;;;;;;;1.57;0.90;;;19.60;46.20;;;;;;4978858;28;20985;-76
2023/12/30 07:29:38;;;;;;;0.90;0.80;;;19.70;46.30;;;;;;4977477;28;20454;-75
2023/12/30 07:32:03;;;;;;;0.60;0.50;;;19.70;46.30;;;;;;4984668;28;20885;-79
2023/12/30 07:34:29;;;;;;;1.10;0.80;;;19.70;46.30;;;;;;4970738;28;20220;-78
2023/12/30 07:36:56;;;;;;;2.93;1.10;;;19.70;46.30;;;;;;4988943;28;20236;-79
2023/12/30 07:39:23;;;;;;;1.20;0.77;;;19.70;46.30;;;;;;4994258;28;20240;-77
2023/12/30 07:41:48;;;;;;;0.90;0.80;;;19.70;46.30;;;;;;4983089;28;20971;-78
2023/12/30 07:44:15;;;;;;;1.07;0.73;;;19.70;46.30;;;;;;4999319;28;20652;-80
2023/12/30 07:46:41;;;;;;;1.00;0.80;;;19.70;46.30;;;;;;4995460;28;20602;-78
2023/12/30 07:49:07;;;;;;;0.80;0.63;;;19.70;46.30;;;;;;4987137;28;20470;-77
2023/12/30 07:51:32;;;;;;;4.80;0.80;;;19.70;46.30;;;;;;4988697;28;20454;-80
2023/12/30 07:53:58;;;;;;;0.80;0.70;;;19.70;46.30;;;;;;4995734;28;20743;-80
2023/12/30 07:56:23;;;;;;;1.93;0.80;;;19.70;46.20;;;;;;4968604;28;20215;-79
2023/12/30 07:58:49;;;;;;;1.10;0.80;;;19.70;46.30;;;;;;4974153;28;20302;-76
2023/12/30 08:01:14;;;;;;;1.30;1.00;;;19.70;46.30;;;;;;4990813;28;20691;-78
2023/12/30 08:03:40;;;;;;;2.43;1.43;;;19.70;46.30;;;;;;4991364;28;20234;-76
2023/12/30 08:06:06;;;;;;;0.80;0.70;;;19.70;46.30;;;;;;4992273;28;20223;-76
2023/12/30 08:08:31;;;;;;;1.93;0.70;;;19.70;46.30;;;;;;4982725;28;20255;-76
2023/12/30 08:10:57;;;;;;;1.37;0.80;;;19.70;46.30;;;;;;4983567;28;20449;-77
2023/12/30 08:13:22;;;;;;;1.57;1.37;;;19.70;46.30;;;;;;4991048;28;20241;-77
2023/12/30 08:15:48;;;;;;;0.87;0.83;;;19.70;46.30;;;;;;4991564;28;20228;-75
2023/12/30 08:18:13;;;;;;;1.20;0.80;;;19.60;46.20;;;;;;4996598;28;20231;-78
2023/12/30 08:20:39;;;;;;;0.90;0.70;;;19.70;46.30;;;;;;4987340;28;20254;-72
2023/12/30 08:23:04;;;;;;;1.27;0.80;;;19.70;46.30;;;;;;4985227;28;20227;-70
2023/12/30 08:25:30;;;;;;;0.80;0.70;;;19.60;46.20;;;;;;4999211;28;20226;-72
2023/12/30 08:27:59;;;;;;;0.80;0.70;;;19.60;46.20;;;;;;4993763;28;20231;-72
2023/12/30 08:30:24;;;;;;;1.00;0.90;;;19.60;46.20;;;;;;5004244;28;20220;-72
2023/12/30 08:32:50;;;;;;;0.80;0.80;;;19.70;46.30;;;;;;4999863;28;20839;-73
2023/12/30 08:35:16;;;;;;;1.27;1.07;;;19.70;46.30;;;;;;4997232;28;20232;-74
2023/12/30 08:37:41;;;;;;;1.37;0.63;;;19.70;46.30;;;;;;4988252;28;20223;-72
2023/12/30 08:40:10;;;;;;;1.10;0.80;;;19.60;46.20;;;;;;4997501;28;20972;-73
2023/12/30 08:42:36;;;;;;;0.90;0.80;;;19.70;46.30;;;;;;4969701;28;20232;-73
2023/12/30 08:45:04;;;;;;;0.90;0.70;;;19.70;46.30;;;;;;4988153;28;20473;-73
2023/12/30 08:47:32;;;;;;;0.90;0.80;;;19.60;46.20;;;;;;4988417;28;20441;-74
2023/12/30 08:49:58;;;;;;;0.90;0.70;;;19.70;46.20;;;;;;5002856;28;20467;-72
2023/12/30 08:52:24;;;;;;;0.93;0.80;;;19.70;46.10;;;;;;4973427;28;20567;-73
2023/12/30 08:54:49;;;;;;;1.10;0.80;;;19.70;46.10;;;;;;4985146;28;20223;-74
2023/12/30 08:57:15;;;;;;;1.10;1.00;;;19.70;46.20;;;;;;4988539;28;20228;-77
2023/12/30 08:59:40;;;;;;;1.30;1.00;;;19.60;46.10;;;;;;4991860;28;20227;-72
2023/12/30 09:02:06;;;;;;;1.10;0.80;;;19.70;46.20;;;;;;4975834;28;20232;-73
2023/12/30 09:04:32;;;;;;;0.83;0.70;;;19.70;46.20;;;;;;4985157;28;20235;-78
2023/12/30 09:06:57;;;;;;;1.97;0.90;;;19.70;46.30;;;;;;4998526;28;20219;-75
2023/12/30 09:09:23;;;;;;;2.07;0.80;;;19.60;46.20;;;;;;4998867;28;20609;-75
2023/12/30 09:11:48;;;;;;;1.10;1.00;;;19.60;46.20;;;;;;4985622;28;20793;-73
2023/12/30 09:14:14;;;;;;;1.30;1.00;;;19.60;46.30;;;;;;4998635;28;20585;-72
2023/12/30 09:16:39;;;;;;;0.70;0.70;;;19.60;46.30;;;;;;4992757;28;20227;-72
2023/12/30 09:19:05;;;;;;;2.03;0.70;;;19.60;46.30;;;;;;4996173;28;20686;-75
2023/12/30 09:21:30;;;;;;;1.43;0.80;;;19.60;46.20;;;;;;4994222;28;20854;-71
2023/12/30 09:23:57;;;;;;;1.83;1.67;;;19.60;46.30;;;;;;4971150;28;20220;-72
2023/12/30 09:26:22;;;;;;;1.03;0.83;;;19.60;46.20;;;;;;4988855;28;20321;-72
2023/12/30 09:28:48;;;;;;;0.90;0.80;;;19.60;46.30;;;;;;4985134;28;20571;-79
2023/12/30 09:31:13;;;;;;;4.30;1.00;;;19.60;46.30;;;;;;4992470;28;20224;-80
2023/12/30 09:33:39;;;;;;;1.30;0.70;;;19.60;46.30;;;;;;4991355;28;20262;-78
2023/12/30 09:36:06;;;;;;;1.23;0.90;;;19.60;46.30;;;;;;4990814;28;20278;-80
2023/12/30 09:38:31;;;;;;;1.77;0.97;;;19.60;46.30;;;;;;4961039;28;20568;-76
2023/12/30 09:40:57;;;;;;;1.37;0.80;;;19.60;46.40;;;;;;4983534;28;20441;-77
2023/12/30 09:43:27;;;;;;;1.73;1.00;;;19.60;46.40;;;;;;4963375;28;20228;-78
2023/12/30 09:45:54;;;;;;;0.80;0.73;;;19.60;46.40;;;;;;4993445;28;20239;-79
2023/12/30 09:48:22;;;;;;;1.30;0.97;;;19.60;46.30;;;;;;4991901;28;20432;-79
2023/12/30 09:50:49;;;;;;;0.83;0.60;;;19.60;46.40;;;;;;4991471;28;20489;-79
2023/12/30 09:53:16;;;;;;;1.60;0.97;;;19.60;46.40;;;;;;4995928;28;20950;-74
2023/12/30 09:55:44;;;;;;;1.07;0.87;;;19.60;46.40;;;;;;4980355;28;20952;-76
2023/12/30 09:58:10;;;;;;;1.20;0.83;;;19.60;46.50;;;;;;4980859;28;20447;-77
2023/12/30 10:00:39;;;;;;;1.10;0.93;;;19.60;46.40;;;;;;4980538;28;20812;-79
2023/12/30 10:03:05;;;;;;;1.93;0.97;;;19.60;46.40;;;;;;4987724;28;20223;-78
2023/12/30 10:05:30;;;;;;;0.87;0.77;;;19.60;46.40;;;;;;4982664;28;20952;-81
2023/12/30 10:07:57;;;;;;;1.30;1.10;;;19.60;46.40;;;;;;4995901;28;20646;-78
2023/12/30 10:10:46;;;;;;;1.10;1.00;;;19.60;46.40;;;;;;4990545;28;20687;-75
2023/12/30 10:13:13;;;;;;;3.10;1.00;;;19.60;46.40;;;;;;4992988;28;20449;-72
2023/12/30 10:15:40;;;;;;;1.80;1.07;;;19.60;47.20;;;;;;4983581;28;20440;-71
2023/12/30 10:18:09;;;;;;;1.13;1.00;;;19.60;46.40;;;;;;4970335;28;20618;-71
2023/12/30 10:20:40;;;;;;;2.83;1.40;;;19.60;46.40;;;;;;4996486;28;20569;-71
2023/12/30 10:23:07;;;;;;;1.77;0.90;;;19.60;45.90;;;;;;4986496;28;20557;-71
2023/12/30 10:25:32;;;;;;;1.87;1.10;;;19.60;46.50;;;;;;4984890;28;20487;-71
2023/12/30 10:27:58;;;;;;;1.63;1.20;;;19.60;46.50;;;;;;4991070;28;20892;-73
2023/12/30 10:30:23;;;;;;;1.50;0.90;;;19.60;46.50;;;;;;4990601;28;20310;-71
2023/12/30 10:32:49;;;;;;;0.90;0.80;;;19.60;46.50;;;;;;4991873;28;20244;-72
2023/12/30 10:35:15;;;;;;;1.80;0.93;;;19.60;46.50;;;;;;4996549;28;20239;-72
2023/12/30 10:37:42;;;;;;;2.90;1.20;;;19.60;46.50;;;;;;4988695;28;20231;-71
2023/12/30 10:40:11;;;;;;;1.50;1.00;;;19.60;46.50;;;;;;4990317;28;20276;-73
2023/12/30 10:42:40;;;;;;;1.10;0.80;;;19.60;46.50;;;;;;4992141;28;20897;-74
2023/12/30 10:45:07;;;;;;;2.07;1.10;;;19.60;46.50;;;;;;4981923;28;21164;-74
2023/12/30 10:47:39;;;;;;;1.30;1.20;;;19.60;46.50;;;;;;4983164;28;20536;-74
2023/12/30 10:50:07;;;;;;;2.90;1.10;;;19.60;46.50;;;;;;4983951;28;20669;-73
2023/12/30 10:52:36;;;;;;;1.13;1.03;;;19.60;46.50;;;;;;4996564;28;20459;-74
2023/12/30 10:55:14;;;;;;;1.37;1.10;;;19.60;46.50;;;;;;4986485;28;20436;-74
2023/12/30 10:57:49;;;;;;;1.27;1.10;;;19.60;46.50;;;;;;4987220;28;20535;-74
2023/12/30 11:00:20;;;;;;;2.20;1.10;;;19.60;46.50;;;;;;4987733;28;20438;-74
2023/12/30 11:02:47;;;;;;;1.47;0.90;;;19.60;46.60;;;;;;4994525;28;20472;-74
2023/12/30 11:05:43;;;;;;;1.13;1.00;;;19.60;46.60;;;;;;4987453;28;20784;-74
2023/12/30 11:08:09;;;;;;;1.13;1.03;;;19.60;46.60;;;;;;4974093;28;20636;-74
2023/12/30 11:10:35;;;;;;;1.60;1.30;;;19.60;46.60;;;;;;4985960;28;20436;-75
2023/12/30 11:13:00;;;;;;;0.97;0.87;;;19.60;46.60;;;;;;4989375;28;20546;-74
2023/12/30 11:15:30;;;;;;;1.13;1.00;;;19.60;46.60;;;;;;4991804;28;20224;-74
2023/12/30 11:17:58;;;;;;;1.97;1.17;;;19.60;46.60;;;;;;4995327;28;20266;-74
2023/12/30 11:20:32;;;;;;;1.83;1.00;;;19.60;46.50;;;;;;4994368;28;20443;-71
2023/12/30 11:23:02;;;;;;;1.40;1.00;;;19.60;46.60;;;;;;4990276;28;20797;-71
2023/12/30 11:25:53;;;;;;;2.47;0.97;;;19.60;46.60;;;;;;4992991;28;20496;-69
2023/12/30 11:28:21;;;;;;;0.93;0.80;;;19.60;46.50;;;;;;4991358;28;20453;-73
2023/12/30 11:30:56;;;;;;;1.50;1.20;;;19.60;46.50;;;;;;4994084;28;20862;-68
2023/12/30 11:33:22;;;;;;;1.93;1.20;;;19.60;46.60;;;;;;4987872;28;20815;-69
2023/12/30 11:35:51;;;;;;;2.50;0.97;;;19.60;46.60;;;;;;4996651;28;20443;-70
2023/12/30 11:38:18;;;;;;;1.47;1.07;;;19.60;46.50;;;;;;4992599;28;20603;-71
2023/12/30 11:40:49;;;;;;;1.80;1.67;;;19.60;46.60;;;;;;4992870;28;20436;-68
2023/12/30 11:43:15;;;;;;;1.67;1.00;;;19.60;46.50;;;;;;4981485;28;20804;-73
2023/12/30 11:45:41;;;;;;;1.00;0.87;;;19.60;47.30;;;;;;4987517;28;20448;-68
2023/12/30 11:48:07;;;;;;;1.40;1.13;;;19.60;46.60;;;;;;4993445;28;20249;-72
2023/12/30 11:50:33;;;;;;;1.23;1.03;;;19.60;46.50;;;;;;4990157;28;20917;-70
2023/12/30 11:53:00;;;;;;;3.10;1.30;;;19.60;46.50;;;;;;4990365;28;20843;-70
2023/12/30 11:55:26;;;;;;;3.80;1.10;;;19.60;46.50;;;;;;4995794;28;20492;-70
2023/12/30 11:57:52;;;;;;;1.10;1.00;;;19.60;46.50;;;;;;4991787;28;20505;-72
2023/12/30 12:00:20;;;;;;;1.27;1.10;;;19.60;46.50;;;;;;4980474;28;20751;-71
2023/12/30 12:02:45;;;;;;;0.90;0.80;;;19.60;46.50;;;;;;4998795;28;20290;-71
2023/12/30 12:05:11;;;;;;;0.90;0.80;;;19.60;46.50;;;;;;4959124;28;20457;-70
2023/12/30 12:07:36;;;;;;;1.90;1.00;;;19.60;46.50;;;;;;4997105;28;20290;-71
2023/12/30 12:10:02;;;;;;;1.80;1.30;;;19.60;46.50;;;;;;4981028;28;20659;-71
2023/12/30 12:12:36;;;;;;;3.13;1.00;;;19.60;46.50;;;;;;4991171;28;20238;-70
2023/12/30 12:15:04;;;;;;;1.03;0.93;;;19.60;46.50;;;;;;4992247;28;20258;-71
2023/12/30 12:17:29;;;;;;;1.80;0.80;;;19.60;46.50;;;;;;4995513;28;20790;-70
2023/12/30 12:19:56;;;;;;;1.73;0.80;;;19.60;46.50;;;;;;4989702;28;20527;-70
2023/12/30 12:22:22;;;;;;;1.13;1.00;;;19.60;46.50;;;;;;4976946;28;20232;-73
2023/12/30 12:24:48;;;;;;;1.20;1.10;;;19.60;46.50;;;;;;4988734;28;20520;-71
2023/12/30 12:27:23;;;;;;;1.00;0.90;;;19.60;46.50;;;;;;4980673;28;20238;-71
2023/12/30 12:29:56;;;;;;;1.53;1.10;;;19.60;46.50;;;;;;4968942;28;20309;-74
2023/12/30 12:32:23;;;;;;;1.40;0.90;;;19.60;46.50;;;;;;4988090;28;21003;-73
2023/12/30 12:34:49;;;;;;;1.90;1.00;;;19.60;46.50;;;;;;4987325;28;21434;-74
2023/12/30 12:37:15;;;;;;;1.70;1.03;;;19.60;46.50;;;;;;4984380;28;20456;-74
2023/12/30 12:39:45;;;;;;;1.10;0.90;;;19.60;46.50;;;;;;4991790;28;20412;-74
2023/12/30 12:42:14;;;;;;;1.00;0.90;;;19.60;46.60;;;;;;4990477;28;20581;-74
2023/12/30 12:44:40;;;;;;;1.00;0.90;;;19.60;46.60;;;;;;4987430;28;20470;-72